sensor_id;sensor_type;location;lat;lon;timestamp;temperature;humidity
14357;DHT22;7262;48.764;9.166;2022-09-09T00:01:44;15.30;99.90
14357;DHT22;7262;48.764;9.166;2022-09-09T00:04:15;15.30;99.90
14357;DHT22;7262;48.764;9.166;2022-09-09T00:06:43;15.20;99.90
14357;DHT22;7262;48.764;9.166;2022-09-09T00:09:12;15.20;99.90
14357;DHT22;7262;48.764;9.166;2022-09-09T00:11:40;15.20;99.90
14357;DHT22;7262;48.764;9.166;2022-09-09T00:14:13;15.20;99.90
14357;DHT22;7262;48.764;9.166;2022-09-09T00:16:42;15.20;99.90
14357;DHT22;7262;48.764;9.166;2022-09-09T00:19:15;15.20;99.90
14357;DHT22;7262;48.764;9.166;2022-09-09T00:21:47;15.20;99.90
14357;DHT22;7262;48.764;9.166;2022-09-09T00:24:17;15.30;99.90
14357;DHT22;7262;48.764;9.166;2022-09-09T00:26:47;15.30;99.90
14357;DHT22;7262;48.764;9.166;2022-09-09T00:29:19;15.30;99.90
14357;DHT22;7262;48.764;9.166;2022-09-09T00:31:48;15.30;99.90
14357;DHT22;7262;48.764;9.166;2022-09-09T00:34:16;15.30;99.90
14357;DHT22;7262;48.764;9.166;2022-09-09T00:36:44;15.30;99.90
14357;DHT22;7262;48.764;9.166;2022-09-09T00:39:27;15.40;99.90
14357;DHT22;7262;48.764;9.166;2022-09-09T00:42:01;15.40;99.90
14357;DHT22;7262;48.764;9.166;2022-09-09T00:44:31;15.40;99.90
14357;DHT22;7262;48.764;9.166;2022-09-09T00:47:04;15.40;99.90
14357;DHT22;7262;48.764;9.166;2022-09-09T00:49:37;15.50;99.90
14357;DHT22;7262;48.764;9.166;2022-09-09T00:52:10;15.50;99.90
14357;DHT22;7262;48.764;9.166;2022-09-09T00:54:42;15.60;99.90
14357;DHT22;7262;48.764;9.166;2022-09-09T00:57:18;15.60;99.90
14357;DHT22;7262;48.764;9.166;2022-09-09T00:59:48;15.70;99.90
14357;DHT22;7262;48.764;9.166;2022-09-09T01:02:21;15.70;99.90
14357;DHT22;7262;48.764;9.166;2022-09-09T01:04:51;15.80;99.90
14357;DHT22;7262;48.764;9.166;2022-09-09T01:07:18;15.80;99.90
14357;DHT22;7262;48.764;9.166;2022-09-09T01:09:50;15.80;99.90
14357;DHT22;7262;48.764;9.166;2022-09-09T01:12:23;15.80;99.90
14357;DHT22;7262;48.764;9.166;2022-09-09T01:14:53;15.90;99.90
14357;DHT22;7262;48.764;9.166;2022-09-09T01:17:23;15.90;99.90
14357;DHT22;7262;48.764;9.166;2022-09-09T01:19:57;15.90;99.90
14357;DHT22;7262;48.764;9.166;2022-09-09T01:22:29;15.90;99.90
14357;DHT22;7262;48.764;9.166;2022-09-09T01:25:13;15.80;99.90
14357;DHT22;7262;48.764;9.166;2022-09-09T01:27:45;15.80;99.90
14357;DHT22;7262;48.764;9.166;2022-09-09T01:30:14;15.80;99.90
14357;DHT22;7262;48.764;9.166;2022-09-09T01:32:42;15.70;99.90
14357;DHT22;7262;48.764;9.166;2022-09-09T01:35:13;15.70;99.90
14357;DHT22;7262;48.764;9.166;2022-09-09T01:37:41;15.60;99.90
14357;DHT22;7262;48.764;9.166;2022-09-09T01:40:08;15.60;99.90
14357;DHT22;7262;48.764;9.166;2022-09-09T01:42:35;15.60;99.90
14357;DHT22;7262;48.764;9.166;2022-09-09T01:45:04;15.60;99.90
14357;DHT22;7262;48.764;9.166;2022-09-09T01:47:31;15.60;99.90
14357;DHT22;7262;48.764;9.166;2022-09-09T01:49:58;15.60;99.90
14357;DHT22;7262;48.764;9.166;2022-09-09T01:52:24;15.60;99.90
14357;DHT22;7262;48.764;9.166;2022-09-09T01:54:51;15.60;99.90
14357;DHT22;7262;48.764;9.166;2022-09-09T01:57:20;15.60;99.90
14357;DHT22;7262;48.764;9.166;2022-09-09T01:59:52;15.60;99.90
14357;DHT22;7262;48.764;9.166;2022-09-09T02:02:22;15.50;99.90
14357;DHT22;7262;48.764;9.166;2022-09-09T02:04:52;15.50;99.90
14357;DHT22;7262;48.764;9.166;2022-09-09T02:07:33;15.40;99.90
14357;DHT22;7262;48.764;9.166;2022-09-09T02:10:05;15.30;99.90
14357;DHT22;7262;48.764;9.166;2022-09-09T02:12:35;15.30;99.90
14357;DHT22;7262;48.764;9.166;2022-09-09T02:15:03;15.20;99.90
14357;DHT22;7262;48.764;9.166;2022-09-09T02:17:34;15.20;99.90
14357;DHT22;7262;48.764;9.166;2022-09-09T02:20:06;15.20;99.90
14357;DHT22;7262;48.764;9.166;2022-09-09T02:22:34;15.10;99.90
14357;DHT22;7262;48.764;9.166;2022-09-09T02:25:02;15.00;99.90
14357;DHT22;7262;48.764;9.166;2022-09-09T02:27:30;15.00;99.90
14357;DHT22;7262;48.764;9.166;2022-09-09T02:29:57;15.00;99.90
14357;DHT22;7262;48.764;9.166;2022-09-09T02:32:27;15.00;99.90
14357;DHT22;7262;48.764;9.166;2022-09-09T02:34:57;15.00;99.90
14357;DHT22;7262;48.764;9.166;2022-09-09T02:37:27;15.00;99.90
14357;DHT22;7262;48.764;9.166;2022-09-09T02:39:55;14.90;99.90
14357;DHT22;7262;48.764;9.166;2022-09-09T02:42:22;14.90;99.90
14357;DHT22;7262;48.764;9.166;2022-09-09T02:44:52;14.80;99.90
14357;DHT22;7262;48.764;9.166;2022-09-09T02:47:24;14.70;99.90
14357;DHT22;7262;48.764;9.166;2022-09-09T02:49:54;14.70;99.90
14357;DHT22;7262;48.764;9.166;2022-09-09T02:52:26;14.60;99.90
14357;DHT22;7262;48.764;9.166;2022-09-09T02:54:54;14.60;99.90
14357;DHT22;7262;48.764;9.166;2022-09-09T02:57:24;14.60;99.90
14357;DHT22;7262;48.764;9.166;2022-09-09T02:59:53;14.60;99.90
14357;DHT22;7262;48.764;9.166;2022-09-09T03:02:20;14.60;99.90
14357;DHT22;7262;48.764;9.166;2022-09-09T03:04:47;14.50;99.90
14357;DHT22;7262;48.764;9.166;2022-09-09T03:07:17;14.50;99.90
14357;DHT22;7262;48.764;9.166;2022-09-09T03:09:45;14.60;99.90
14357;DHT22;7262;48.764;9.166;2022-09-09T03:12:12;14.60;99.90
14357;DHT22;7262;48.764;9.166;2022-09-09T03:14:38;14.60;99.90
14357;DHT22;7262;48.764;9.166;2022-09-09T03:17:05;14.60;99.90
14357;DHT22;7262;48.764;9.166;2022-09-09T03:19:33;14.60;99.90
14357;DHT22;7262;48.764;9.166;2022-09-09T03:22:00;14.70;99.90
14357;DHT22;7262;48.764;9.166;2022-09-09T03:24:29;14.70;99.90
14357;DHT22;7262;48.764;9.166;2022-09-09T03:27:01;14.70;99.90
14357;DHT22;7262;48.764;9.166;2022-09-09T03:29:28;14.70;99.90
14357;DHT22;7262;48.764;9.166;2022-09-09T03:31:55;14.80;99.90
14357;DHT22;7262;48.764;9.166;2022-09-09T03:34:21;14.70;99.90
14357;DHT22;7262;48.764;9.166;2022-09-09T03:36:48;14.70;99.90
14357;DHT22;7262;48.764;9.166;2022-09-09T03:39:15;14.70;99.90
14357;DHT22;7262;48.764;9.166;2022-09-09T03:41:42;14.80;99.90
14357;DHT22;7262;48.764;9.166;2022-09-09T03:44:12;14.80;99.90
14357;DHT22;7262;48.764;9.166;2022-09-09T03:46:39;14.80;99.90
14357;DHT22;7262;48.764;9.166;2022-09-09T03:49:05;14.80;99.90
14357;DHT22;7262;48.764;9.166;2022-09-09T03:51:33;14.80;99.90
14357;DHT22;7262;48.764;9.166;2022-09-09T03:54:02;14.80;99.90
14357;DHT22;7262;48.764;9.166;2022-09-09T03:56:30;14.90;99.90
14357;DHT22;7262;48.764;9.166;2022-09-09T03:58:57;14.80;99.90
14357;DHT22;7262;48.764;9.166;2022-09-09T04:01:26;14.80;99.90
14357;DHT22;7262;48.764;9.166;2022-09-09T04:03:53;14.80;99.90
14357;DHT22;7262;48.764;9.166;2022-09-09T04:06:22;14.80;99.90
14357;DHT22;7262;48.764;9.166;2022-09-09T04:08:49;14.80;99.90
14357;DHT22;7262;48.764;9.166;2022-09-09T04:11:17;14.80;99.90
14357;DHT22;7262;48.764;9.166;2022-09-09T04:13:45;14.90;99.90
14357;DHT22;7262;48.764;9.166;2022-09-09T04:16:12;14.90;99.90
14357;DHT22;7262;48.764;9.166;2022-09-09T04:18:41;15.00;99.90
14357;DHT22;7262;48.764;9.166;2022-09-09T04:21:09;15.10;99.90
14357;DHT22;7262;48.764;9.166;2022-09-09T04:23:37;15.10;99.90
14357;DHT22;7262;48.764;9.166;2022-09-09T04:26:05;15.20;99.90
14357;DHT22;7262;48.764;9.166;2022-09-09T04:28:32;15.40;99.90
14357;DHT22;7262;48.764;9.166;2022-09-09T04:31:04;15.40;99.90
14357;DHT22;7262;48.764;9.166;2022-09-09T04:33:30;15.40;99.90
14357;DHT22;7262;48.764;9.166;2022-09-09T04:35:59;15.40;99.90
14357;DHT22;7262;48.764;9.166;2022-09-09T04:38:26;15.40;99.90
14357;DHT22;7262;48.764;9.166;2022-09-09T04:40:53;15.50;99.90
14357;DHT22;7262;48.764;9.166;2022-09-09T04:43:20;15.50;99.90
14357;DHT22;7262;48.764;9.166;2022-09-09T04:45:48;15.60;99.90
14357;DHT22;7262;48.764;9.166;2022-09-09T04:48:15;15.60;99.90
14357;DHT22;7262;48.764;9.166;2022-09-09T04:50:42;15.60;99.90
14357;DHT22;7262;48.764;9.166;2022-09-09T04:53:10;15.50;99.90
14357;DHT22;7262;48.764;9.166;2022-09-09T04:55:37;15.50;99.90
14357;DHT22;7262;48.764;9.166;2022-09-09T04:58:04;15.50;99.90
14357;DHT22;7262;48.764;9.166;2022-09-09T05:00:31;15.50;99.90
14357;DHT22;7262;48.764;9.166;2022-09-09T05:03:01;15.40;99.90
14357;DHT22;7262;48.764;9.166;2022-09-09T05:05:28;15.40;99.90
14357;DHT22;7262;48.764;9.166;2022-09-09T05:08:00;15.40;99.90
14357;DHT22;7262;48.764;9.166;2022-09-09T05:10:28;15.30;99.90
14357;DHT22;7262;48.764;9.166;2022-09-09T05:12:55;15.30;99.90
14357;DHT22;7262;48.764;9.166;2022-09-09T05:15:22;15.20;99.90
14357;DHT22;7262;48.764;9.166;2022-09-09T05:17:49;15.20;99.90
14357;DHT22;7262;48.764;9.166;2022-09-09T05:20:17;15.30;99.90
14357;DHT22;7262;48.764;9.166;2022-09-09T05:22:44;15.30;99.90
14357;DHT22;7262;48.764;9.166;2022-09-09T05:25:11;15.40;99.90
14357;DHT22;7262;48.764;9.166;2022-09-09T05:27:39;15.40;99.90
14357;DHT22;7262;48.764;9.166;2022-09-09T05:30:06;15.50;99.90
14357;DHT22;7262;48.764;9.166;2022-09-09T05:32:33;15.50;99.90
14357;DHT22;7262;48.764;9.166;2022-09-09T05:35:00;15.60;99.90
14357;DHT22;7262;48.764;9.166;2022-09-09T05:37:28;15.70;99.90
14357;DHT22;7262;48.764;9.166;2022-09-09T05:39:55;15.80;99.90
14357;DHT22;7262;48.764;9.166;2022-09-09T05:42:23;15.90;99.90
14357;DHT22;7262;48.764;9.166;2022-09-09T05:44:51;15.90;99.90
14357;DHT22;7262;48.764;9.166;2022-09-09T05:47:19;15.90;99.90
14357;DHT22;7262;48.764;9.166;2022-09-09T05:49:46;16.00;99.90
14357;DHT22;7262;48.764;9.166;2022-09-09T05:52:13;16.10;99.90
14357;DHT22;7262;48.764;9.166;2022-09-09T05:54:40;16.10;99.90
14357;DHT22;7262;48.764;9.166;2022-09-09T05:57:08;16.20;99.90
14357;DHT22;7262;48.764;9.166;2022-09-09T05:59:37;16.30;99.90
14357;DHT22;7262;48.764;9.166;2022-09-09T06:02:05;16.40;99.90
14357;DHT22;7262;48.764;9.166;2022-09-09T06:04:32;16.50;99.90
14357;DHT22;7262;48.764;9.166;2022-09-09T06:06:59;16.50;99.90
14357;DHT22;7262;48.764;9.166;2022-09-09T06:09:26;16.50;99.90
14357;DHT22;7262;48.764;9.166;2022-09-09T06:11:53;16.60;99.90
14357;DHT22;7262;48.764;9.166;2022-09-09T06:14:20;16.70;99.90
14357;DHT22;7262;48.764;9.166;2022-09-09T06:16:47;16.70;99.90
14357;DHT22;7262;48.764;9.166;2022-09-09T06:19:16;16.80;99.90
14357;DHT22;7262;48.764;9.166;2022-09-09T06:21:43;16.80;99.90
14357;DHT22;7262;48.764;9.166;2022-09-09T06:24:10;16.90;99.90
14357;DHT22;7262;48.764;9.166;2022-09-09T06:26:39;16.80;99.90
14357;DHT22;7262;48.764;9.166;2022-09-09T06:29:09;16.90;99.90
14357;DHT22;7262;48.764;9.166;2022-09-09T06:31:36;17.00;99.90
14357;DHT22;7262;48.764;9.166;2022-09-09T06:34:04;17.00;99.90
14357;DHT22;7262;48.764;9.166;2022-09-09T06:36:33;17.10;99.90
14357;DHT22;7262;48.764;9.166;2022-09-09T06:39:02;17.20;99.90
14357;DHT22;7262;48.764;9.166;2022-09-09T06:41:30;17.20;99.90
14357;DHT22;7262;48.764;9.166;2022-09-09T06:43:57;17.30;99.90
14357;DHT22;7262;48.764;9.166;2022-09-09T06:46:24;17.30;99.90
14357;DHT22;7262;48.764;9.166;2022-09-09T06:48:53;17.30;99.90
14357;DHT22;7262;48.764;9.166;2022-09-09T06:51:22;17.40;99.90
14357;DHT22;7262;48.764;9.166;2022-09-09T06:53:53;17.60;99.90
14357;DHT22;7262;48.764;9.166;2022-09-09T06:56:22;17.70;99.90
14357;DHT22;7262;48.764;9.166;2022-09-09T06:58:50;17.70;99.90
14357;DHT22;7262;48.764;9.166;2022-09-09T07:01:17;17.90;99.90
14357;DHT22;7262;48.764;9.166;2022-09-09T07:03:46;18.00;99.90
14357;DHT22;7262;48.764;9.166;2022-09-09T07:06:15;18.10;99.90
14357;DHT22;7262;48.764;9.166;2022-09-09T07:08:43;18.40;99.90
14357;DHT22;7262;48.764;9.166;2022-09-09T07:11:11;18.50;99.90
14357;DHT22;7262;48.764;9.166;2022-09-09T07:13:38;18.60;99.90
14357;DHT22;7262;48.764;9.166;2022-09-09T07:16:05;18.60;99.90
14357;DHT22;7262;48.764;9.166;2022-09-09T07:18:32;18.50;99.90
14357;DHT22;7262;48.764;9.166;2022-09-09T07:21:00;18.70;99.90
14357;DHT22;7262;48.764;9.166;2022-09-09T07:23:27;18.60;99.90
14357;DHT22;7262;48.764;9.166;2022-09-09T07:25:54;18.70;99.90
14357;DHT22;7262;48.764;9.166;2022-09-09T07:28:22;19.00;99.90
14357;DHT22;7262;48.764;9.166;2022-09-09T07:30:53;19.20;99.90
14357;DHT22;7262;48.764;9.166;2022-09-09T07:33:19;20.00;99.90
14357;DHT22;7262;48.764;9.166;2022-09-09T07:35:51;21.30;99.90
14357;DHT22;7262;48.764;9.166;2022-09-09T07:38:20;22.10;99.90
14357;DHT22;7262;48.764;9.166;2022-09-09T07:40:48;21.60;99.90
14357;DHT22;7262;48.764;9.166;2022-09-09T07:43:14;21.90;99.90
14357;DHT22;7262;48.764;9.166;2022-09-09T07:45:45;23.30;99.90
14357;DHT22;7262;48.764;9.166;2022-09-09T07:48:12;24.30;99.90
14357;DHT22;7262;48.764;9.166;2022-09-09T07:50:40;25.20;99.90
14357;DHT22;7262;48.764;9.166;2022-09-09T07:53:08;25.80;99.90
14357;DHT22;7262;48.764;9.166;2022-09-09T07:55:38;25.60;99.90
14357;DHT22;7262;48.764;9.166;2022-09-09T07:58:05;24.80;99.90
14357;DHT22;7262;48.764;9.166;2022-09-09T08:00:32;25.50;99.90
14357;DHT22;7262;48.764;9.166;2022-09-09T08:03:03;26.50;99.90
14357;DHT22;7262;48.764;9.166;2022-09-09T08:05:29;27.30;99.90
14357;DHT22;7262;48.764;9.166;2022-09-09T08:07:58;27.40;99.90
14357;DHT22;7262;48.764;9.166;2022-09-09T08:10:26;27.80;99.90
14357;DHT22;7262;48.764;9.166;2022-09-09T08:12:53;28.10;99.90
14357;DHT22;7262;48.764;9.166;2022-09-09T08:15:20;28.10;99.90
14357;DHT22;7262;48.764;9.166;2022-09-09T08:17:50;28.30;99.90
14357;DHT22;7262;48.764;9.166;2022-09-09T08:20:18;28.00;99.90
14357;DHT22;7262;48.764;9.166;2022-09-09T08:22:45;27.60;99.90
14357;DHT22;7262;48.764;9.166;2022-09-09T08:25:13;28.50;99.90
14357;DHT22;7262;48.764;9.166;2022-09-09T08:27:40;28.60;99.90
14357;DHT22;7262;48.764;9.166;2022-09-09T08:30:08;28.90;99.90
14357;DHT22;7262;48.764;9.166;2022-09-09T08:32:36;29.30;99.90
14357;DHT22;7262;48.764;9.166;2022-09-09T08:35:03;28.50;99.90
14357;DHT22;7262;48.764;9.166;2022-09-09T08:37:34;28.40;99.90
14357;DHT22;7262;48.764;9.166;2022-09-09T08:40:02;28.80;99.90
14357;DHT22;7262;48.764;9.166;2022-09-09T08:42:38;28.30;99.90
14357;DHT22;7262;48.764;9.166;2022-09-09T08:45:14;28.10;99.90
14357;DHT22;7262;48.764;9.166;2022-09-09T08:47:48;27.30;99.90
14357;DHT22;7262;48.764;9.166;2022-09-09T08:50:19;27.40;99.90
14357;DHT22;7262;48.764;9.166;2022-09-09T08:52:53;27.60;99.90
14357;DHT22;7262;48.764;9.166;2022-09-09T08:55:22;27.70;99.90
14357;DHT22;7262;48.764;9.166;2022-09-09T09:00:21;27.10;99.90
14357;DHT22;7262;48.764;9.166;2022-09-09T09:02:53;26.50;99.90
14357;DHT22;7262;48.764;9.166;2022-09-09T09:05:27;26.90;99.90
14357;DHT22;7262;48.764;9.166;2022-09-09T09:08:00;27.40;99.90
14357;DHT22;7262;48.764;9.166;2022-09-09T09:10:35;26.10;99.90
14357;DHT22;7262;48.764;9.166;2022-09-09T09:13:06;24.60;99.90
14357;DHT22;7262;48.764;9.166;2022-09-09T09:15:36;23.70;99.90
14357;DHT22;7262;48.764;9.166;2022-09-09T09:18:04;23.00;99.90
14357;DHT22;7262;48.764;9.166;2022-09-09T09:20:32;22.50;99.90
14357;DHT22;7262;48.764;9.166;2022-09-09T09:23:03;22.10;99.90
14357;DHT22;7262;48.764;9.166;2022-09-09T09:25:31;21.70;99.90
14357;DHT22;7262;48.764;9.166;2022-09-09T09:28:00;21.20;99.90
14357;DHT22;7262;48.764;9.166;2022-09-09T09:30:31;20.60;99.90
14357;DHT22;7262;48.764;9.166;2022-09-09T09:33:02;19.90;99.90
14357;DHT22;7262;48.764;9.166;2022-09-09T09:35:32;19.70;99.90
14357;DHT22;7262;48.764;9.166;2022-09-09T09:37:59;19.00;99.90
14357;DHT22;7262;48.764;9.166;2022-09-09T09:40:30;18.80;99.90
14357;DHT22;7262;48.764;9.166;2022-09-09T09:43:00;19.80;99.90
14357;DHT22;7262;48.764;9.166;2022-09-09T09:45:28;21.40;99.90
14357;DHT22;7262;48.764;9.166;2022-09-09T09:48:00;23.10;99.90
14357;DHT22;7262;48.764;9.166;2022-09-09T09:50:28;24.40;99.90
14357;DHT22;7262;48.764;9.166;2022-09-09T09:52:56;25.60;99.90
14357;DHT22;7262;48.764;9.166;2022-09-09T09:55:23;26.30;99.90
14357;DHT22;7262;48.764;9.166;2022-09-09T09:57:52;27.00;99.90
14357;DHT22;7262;48.764;9.166;2022-09-09T10:00:19;27.20;99.90
14357;DHT22;7262;48.764;9.166;2022-09-09T10:02:47;27.50;99.90
14357;DHT22;7262;48.764;9.166;2022-09-09T10:05:15;27.60;99.90
14357;DHT22;7262;48.764;9.166;2022-09-09T10:07:42;27.50;99.90
14357;DHT22;7262;48.764;9.166;2022-09-09T10:10:12;27.20;99.90
14357;DHT22;7262;48.764;9.166;2022-09-09T10:12:43;27.40;99.90
14357;DHT22;7262;48.764;9.166;2022-09-09T10:17:58;27.80;99.90
14357;DHT22;7262;48.764;9.166;2022-09-09T10:20:32;28.00;99.90
14357;DHT22;7262;48.764;9.166;2022-09-09T10:23:03;28.20;99.90
14357;DHT22;7262;48.764;9.166;2022-09-09T10:25:35;27.50;99.90
14357;DHT22;7262;48.764;9.166;2022-09-09T10:28:25;27.20;99.90
14357;DHT22;7262;48.764;9.166;2022-09-09T10:30:56;27.10;99.90
14357;DHT22;7262;48.764;9.166;2022-09-09T10:33:28;27.10;99.90
14357;DHT22;7262;48.764;9.166;2022-09-09T10:35:58;26.20;99.90
14357;DHT22;7262;48.764;9.166;2022-09-09T10:38:28;26.40;99.90
14357;DHT22;7262;48.764;9.166;2022-09-09T10:41:01;26.90;99.90
14357;DHT22;7262;48.764;9.166;2022-09-09T10:43:37;26.60;99.90
14357;DHT22;7262;48.764;9.166;2022-09-09T10:46:06;26.70;99.90
14357;DHT22;7262;48.764;9.166;2022-09-09T10:48:44;25.70;99.90
14357;DHT22;7262;48.764;9.166;2022-09-09T10:51:23;24.80;99.90
14357;DHT22;7262;48.764;9.166;2022-09-09T10:53:53;24.00;99.90
14357;DHT22;7262;48.764;9.166;2022-09-09T10:56:25;24.20;99.90
14357;DHT22;7262;48.764;9.166;2022-09-09T10:58:55;24.60;99.90
14357;DHT22;7262;48.764;9.166;2022-09-09T11:01:25;25.60;99.90
14357;DHT22;7262;48.764;9.166;2022-09-09T11:03:55;26.10;99.90
14357;DHT22;7262;48.764;9.166;2022-09-09T11:06:25;26.40;99.90
14357;DHT22;7262;48.764;9.166;2022-09-09T11:08:59;26.20;99.90
14357;DHT22;7262;48.764;9.166;2022-09-09T11:11:29;25.50;99.90
14357;DHT22;7262;48.764;9.166;2022-09-09T11:13:59;24.90;99.90
14357;DHT22;7262;48.764;9.166;2022-09-09T11:16:29;24.70;99.90
14357;DHT22;7262;48.764;9.166;2022-09-09T11:19:00;24.80;99.90
14357;DHT22;7262;48.764;9.166;2022-09-09T11:21:30;24.80;99.90
14357;DHT22;7262;48.764;9.166;2022-09-09T11:24:11;24.20;99.90
14357;DHT22;7262;48.764;9.166;2022-09-09T11:26:41;23.90;99.90
14357;DHT22;7262;48.764;9.166;2022-09-09T11:29:21;23.30;99.90
14357;DHT22;7262;48.764;9.166;2022-09-09T11:32:01;22.90;99.90
14357;DHT22;7262;48.764;9.166;2022-09-09T11:34:37;22.50;99.90
14357;DHT22;7262;48.764;9.166;2022-09-09T11:37:16;22.30;99.90
14357;DHT22;7262;48.764;9.166;2022-09-09T11:39:49;22.50;99.90
14357;DHT22;7262;48.764;9.166;2022-09-09T11:42:19;22.70;99.90
14357;DHT22;7262;48.764;9.166;2022-09-09T11:44:46;22.40;99.90
14357;DHT22;7262;48.764;9.166;2022-09-09T11:47:18;22.20;99.90
14357;DHT22;7262;48.764;9.166;2022-09-09T11:49:48;21.90;99.90
14357;DHT22;7262;48.764;9.166;2022-09-09T11:52:20;21.70;99.90
14357;DHT22;7262;48.764;9.166;2022-09-09T11:54:48;21.70;99.90
14357;DHT22;7262;48.764;9.166;2022-09-09T11:57:23;21.70;99.90
14357;DHT22;7262;48.764;9.166;2022-09-09T11:59:51;22.10;99.90
14357;DHT22;7262;48.764;9.166;2022-09-09T12:02:19;22.50;99.90
14357;DHT22;7262;48.764;9.166;2022-09-09T12:04:54;23.10;99.90
14357;DHT22;7262;48.764;9.166;2022-09-09T12:07:34;24.60;99.90
14357;DHT22;7262;48.764;9.166;2022-09-09T12:10:03;25.70;99.90
14357;DHT22;7262;48.764;9.166;2022-09-09T12:12:33;25.20;99.90
14357;DHT22;7262;48.764;9.166;2022-09-09T12:15:21;24.70;99.90
14357;DHT22;7262;48.764;9.166;2022-09-09T12:17:48;24.40;99.90
14357;DHT22;7262;48.764;9.166;2022-09-09T12:20:19;26.10;99.90
14357;DHT22;7262;48.764;9.166;2022-09-09T12:22:52;27.40;99.90
14357;DHT22;7262;48.764;9.166;2022-09-09T12:25:26;28.30;99.90
14357;DHT22;7262;48.764;9.166;2022-09-09T12:27:59;27.80;99.90
14357;DHT22;7262;48.764;9.166;2022-09-09T12:30:31;27.90;99.90
14357;DHT22;7262;48.764;9.166;2022-09-09T12:33:06;27.70;99.90
14357;DHT22;7262;48.764;9.166;2022-09-09T12:35:36;27.50;99.90
14357;DHT22;7262;48.764;9.166;2022-09-09T12:38:04;28.00;99.90
14357;DHT22;7262;48.764;9.166;2022-09-09T12:40:33;28.00;99.90
14357;DHT22;7262;48.764;9.166;2022-09-09T12:43:01;27.70;99.90
14357;DHT22;7262;48.764;9.166;2022-09-09T12:45:42;25.90;99.90
14357;DHT22;7262;48.764;9.166;2022-09-09T12:48:14;24.50;99.90
14357;DHT22;7262;48.764;9.166;2022-09-09T12:50:46;24.00;99.90
14357;DHT22;7262;48.764;9.166;2022-09-09T12:53:15;23.50;99.90
14357;DHT22;7262;48.764;9.166;2022-09-09T12:55:49;23.60;99.90
14357;DHT22;7262;48.764;9.166;2022-09-09T12:58:16;23.90;99.90
14357;DHT22;7262;48.764;9.166;2022-09-09T13:00:48;25.40;99.90
14357;DHT22;7262;48.764;9.166;2022-09-09T13:03:18;25.90;99.90
14357;DHT22;7262;48.764;9.166;2022-09-09T13:05:49;25.80;99.90
14357;DHT22;7262;48.764;9.166;2022-09-09T13:08:17;24.80;99.90
14357;DHT22;7262;48.764;9.166;2022-09-09T13:10:46;24.00;99.90
14357;DHT22;7262;48.764;9.166;2022-09-09T13:13:13;24.30;99.90
14357;DHT22;7262;48.764;9.166;2022-09-09T13:15:47;24.60;99.90
14357;DHT22;7262;48.764;9.166;2022-09-09T13:18:20;24.70;99.90
14357;DHT22;7262;48.764;9.166;2022-09-09T13:20:52;25.50;99.90
14357;DHT22;7262;48.764;9.166;2022-09-09T13:23:19;26.60;99.90
14357;DHT22;7262;48.764;9.166;2022-09-09T13:25:53;27.30;99.90
14357;DHT22;7262;48.764;9.166;2022-09-09T13:28:21;27.60;99.90
14357;DHT22;7262;48.764;9.166;2022-09-09T13:30:56;27.70;99.90
14357;DHT22;7262;48.764;9.166;2022-09-09T13:33:29;27.00;99.90
14357;DHT22;7262;48.764;9.166;2022-09-09T13:35:58;27.40;99.90
14357;DHT22;7262;48.764;9.166;2022-09-09T13:38:27;28.50;99.90
14357;DHT22;7262;48.764;9.166;2022-09-09T13:40:55;29.20;99.90
14357;DHT22;7262;48.764;9.166;2022-09-09T13:43:27;29.40;99.90
14357;DHT22;7262;48.764;9.166;2022-09-09T13:45:57;27.60;99.90
14357;DHT22;7262;48.764;9.166;2022-09-09T13:48:26;26.60;99.90
14357;DHT22;7262;48.764;9.166;2022-09-09T13:50:56;26.00;99.90
14357;DHT22;7262;48.764;9.166;2022-09-09T13:53:26;27.00;99.90
14357;DHT22;7262;48.764;9.166;2022-09-09T13:55:53;26.70;99.90
14357;DHT22;7262;48.764;9.166;2022-09-09T13:58:20;25.60;99.90
14357;DHT22;7262;48.764;9.166;2022-09-09T14:00:48;26.60;99.90
14357;DHT22;7262;48.764;9.166;2022-09-09T14:03:15;27.60;99.90
14357;DHT22;7262;48.764;9.166;2022-09-09T14:05:43;27.70;99.90
14357;DHT22;7262;48.764;9.166;2022-09-09T14:08:15;27.80;99.90
14357;DHT22;7262;48.764;9.166;2022-09-09T14:10:45;28.60;99.90
14357;DHT22;7262;48.764;9.166;2022-09-09T14:13:13;29.00;99.90
14357;DHT22;7262;48.764;9.166;2022-09-09T14:15:41;29.00;99.90
14357;DHT22;7262;48.764;9.166;2022-09-09T14:18:09;28.40;99.90
14357;DHT22;7262;48.764;9.166;2022-09-09T14:20:40;27.90;99.90
14357;DHT22;7262;48.764;9.166;2022-09-09T14:23:09;28.00;99.90
14357;DHT22;7262;48.764;9.166;2022-09-09T14:25:36;28.00;99.90
14357;DHT22;7262;48.764;9.166;2022-09-09T14:28:07;26.70;99.90
14357;DHT22;7262;48.764;9.166;2022-09-09T14:30:34;25.50;99.90
14357;DHT22;7262;48.764;9.166;2022-09-09T14:33:03;24.80;99.90
14357;DHT22;7262;48.764;9.166;2022-09-09T14:35:30;24.80;99.90
14357;DHT22;7262;48.764;9.166;2022-09-09T14:37:58;25.50;99.90
14357;DHT22;7262;48.764;9.166;2022-09-09T14:40:26;25.00;99.90
14357;DHT22;7262;48.764;9.166;2022-09-09T14:42:56;24.80;99.90
14357;DHT22;7262;48.764;9.166;2022-09-09T14:45:26;24.90;99.90
14357;DHT22;7262;48.764;9.166;2022-09-09T14:47:53;26.30;99.90
14357;DHT22;7262;48.764;9.166;2022-09-09T14:50:24;27.50;99.90
14357;DHT22;7262;48.764;9.166;2022-09-09T14:52:51;28.20;99.90
14357;DHT22;7262;48.764;9.166;2022-09-09T14:55:18;28.90;99.90
14357;DHT22;7262;48.764;9.166;2022-09-09T14:57:46;28.80;99.40
14357;DHT22;7262;48.764;9.166;2022-09-09T15:00:13;27.60;99.90
14357;DHT22;7262;48.764;9.166;2022-09-09T15:02:42;28.20;99.90
14357;DHT22;7262;48.764;9.166;2022-09-09T15:05:09;28.80;99.20
14357;DHT22;7262;48.764;9.166;2022-09-09T15:07:36;28.80;98.60
14357;DHT22;7262;48.764;9.166;2022-09-09T15:10:04;27.40;99.00
14357;DHT22;7262;48.764;9.166;2022-09-09T15:12:33;26.30;99.90
14357;DHT22;7262;48.764;9.166;2022-09-09T15:15:01;25.80;99.90
14357;DHT22;7262;48.764;9.166;2022-09-09T15:17:27;24.90;99.90
14357;DHT22;7262;48.764;9.166;2022-09-09T15:19:57;24.60;99.90
14357;DHT22;7262;48.764;9.166;2022-09-09T15:22:24;24.20;99.90
14357;DHT22;7262;48.764;9.166;2022-09-09T15:24:51;23.80;99.90
14357;DHT22;7262;48.764;9.166;2022-09-09T15:27:18;23.50;99.90
14357;DHT22;7262;48.764;9.166;2022-09-09T15:29:49;23.40;99.90
14357;DHT22;7262;48.764;9.166;2022-09-09T15:32:16;23.60;99.90
14357;DHT22;7262;48.764;9.166;2022-09-09T15:34:45;23.50;99.90
14357;DHT22;7262;48.764;9.166;2022-09-09T15:37:14;23.40;99.90
14357;DHT22;7262;48.764;9.166;2022-09-09T15:39:41;23.30;99.90
14357;DHT22;7262;48.764;9.166;2022-09-09T15:42:07;23.30;99.90
14357;DHT22;7262;48.764;9.166;2022-09-09T15:44:38;23.10;99.90
14357;DHT22;7262;48.764;9.166;2022-09-09T15:47:06;22.80;99.90
14357;DHT22;7262;48.764;9.166;2022-09-09T15:49:34;22.70;99.90
14357;DHT22;7262;48.764;9.166;2022-09-09T15:52:01;22.40;99.90
14357;DHT22;7262;48.764;9.166;2022-09-09T15:54:31;22.30;99.90
14357;DHT22;7262;48.764;9.166;2022-09-09T15:57:00;22.20;99.90
14357;DHT22;7262;48.764;9.166;2022-09-09T15:59:29;22.20;99.90
14357;DHT22;7262;48.764;9.166;2022-09-09T16:01:56;22.10;99.90
14357;DHT22;7262;48.764;9.166;2022-09-09T16:04:25;22.00;99.90